sensor_id;sensor_type;location;lat;lon;timestamp;pressure;altitude;pressure_sealevel;temperature
72405;BMP280;60395;52.020;113.548;2024-03-02T00:00:50;92192.06;;;-11.08
72405;BMP280;60395;52.020;113.548;2024-03-02T00:03:55;92188.94;;;-10.97
72405;BMP280;60395;52.020;113.548;2024-03-02T00:06:59;92190.03;;;-10.79
72405;BMP280;60395;52.020;113.548;2024-03-02T00:10:08;92196.34;;;-10.47
72405;BMP280;60395;52.020;113.548;2024-03-02T00:13:14;92188.84;;;-10.12
72405;BMP280;60395;52.020;113.548;2024-03-02T00:16:17;92194.53;;;-9.90
72405;BMP280;60395;52.020;113.548;2024-03-02T00:19:21;92192.19;;;-9.74
72405;BMP280;60395;52.020;113.548;2024-03-02T00:22:25;92196.50;;;-9.65
72405;BMP280;60395;52.020;113.548;2024-03-02T00:25:37;92199.84;;;-9.51
72405;BMP280;60395;52.020;113.548;2024-03-02T00:28:41;92193.44;;;-9.52
72405;BMP280;60395;52.020;113.548;2024-03-02T00:31:46;92202.94;;;-9.52
72405;BMP280;60395;52.020;113.548;2024-03-02T00:34:51;92192.78;;;-9.52
72405;BMP280;60395;52.020;113.548;2024-03-02T00:37:55;92200.28;;;-9.43
72405;BMP280;60395;52.020;113.548;2024-03-02T00:41:05;92196.41;;;-9.32
72405;BMP280;60395;52.020;113.548;2024-03-02T00:44:12;92204.38;;;-9.26
72405;BMP280;60395;52.020;113.548;2024-03-02T00:47:16;92205.56;;;-9.15
72405;BMP280;60395;52.020;113.548;2024-03-02T00:50:19;92196.50;;;-9.07
72405;BMP280;60395;52.020;113.548;2024-03-02T00:53:32;92200.91;;;-8.96
72405;BMP280;60395;52.020;113.548;2024-03-02T00:56:36;92203.50;;;-8.82
72405;BMP280;60395;52.020;113.548;2024-03-02T00:59:39;92209.91;;;-8.69
72405;BMP280;60395;52.020;113.548;2024-03-02T01:02:43;92207.31;;;-8.58
72405;BMP280;60395;52.020;113.548;2024-03-02T01:05:48;92215.06;;;-8.56
72405;BMP280;60395;52.020;113.548;2024-03-02T01:08:51;92215.06;;;-8.56
72405;BMP280;60395;52.020;113.548;2024-03-02T01:11:55;92211.69;;;-8.46
72405;BMP280;60395;52.020;113.548;2024-03-02T01:14:58;92214.94;;;-8.32
72405;BMP280;60395;52.020;113.548;2024-03-02T01:18:02;92217.09;;;-8.15
72405;BMP280;60395;52.020;113.548;2024-03-02T01:21:05;92208.06;;;-8.04
72405;BMP280;60395;52.020;113.548;2024-03-02T01:24:09;92209.22;;;-7.94
72405;BMP280;60395;52.020;113.548;2024-03-02T01:27:12;92211.78;;;-7.94
72405;BMP280;60395;52.020;113.548;2024-03-02T01:30:16;92206.00;;;-7.94
72405;BMP280;60395;52.020;113.548;2024-03-02T01:33:20;92212.63;;;-7.89
72405;BMP280;60395;52.020;113.548;2024-03-02T01:36:24;92210.38;;;-7.83
72405;BMP280;60395;52.020;113.548;2024-03-02T01:39:28;92203.00;;;-7.77
72405;BMP280;60395;52.020;113.548;2024-03-02T01:42:31;92205.88;;;-7.71
72405;BMP280;60395;52.020;113.548;2024-03-02T01:45:35;92201.72;;;-7.64
72405;BMP280;60395;52.020;113.548;2024-03-02T01:48:40;92198.13;;;-7.59
72405;BMP280;60395;52.020;113.548;2024-03-02T01:51:44;92198.31;;;-7.55
72405;BMP280;60395;52.020;113.548;2024-03-02T01:54:48;92209.97;;;-7.52
72405;BMP280;60395;52.020;113.548;2024-03-02T01:57:57;92210.16;;;-7.62
72405;BMP280;60395;52.020;113.548;2024-03-02T02:01:01;92209.84;;;-7.68
72405;BMP280;60395;52.020;113.548;2024-03-02T02:04:05;92208.91;;;-7.74
72405;BMP280;60395;52.020;113.548;2024-03-02T02:07:09;92207.84;;;-7.69
72405;BMP280;60395;52.020;113.548;2024-03-02T02:10:14;92202.69;;;-7.58
72405;BMP280;60395;52.020;113.548;2024-03-02T02:13:17;92211.38;;;-7.49
72405;BMP280;60395;52.020;113.548;2024-03-02T02:16:21;92212.19;;;-7.45
72405;BMP280;60395;52.020;113.548;2024-03-02T02:19:24;92211.56;;;-7.45
72405;BMP280;60395;52.020;113.548;2024-03-02T02:22:29;92224.50;;;-7.41
72405;BMP280;60395;52.020;113.548;2024-03-02T02:25:32;92210.22;;;-7.32
72405;BMP280;60395;52.020;113.548;2024-03-02T02:28:39;92203.06;;;-7.36
72405;BMP280;60395;52.020;113.548;2024-03-02T02:31:49;92212.22;;;-7.31
72405;BMP280;60395;52.020;113.548;2024-03-02T02:34:53;92197.38;;;-7.21
72405;BMP280;60395;52.020;113.548;2024-03-02T02:37:57;92207.69;;;-7.19
72405;BMP280;60395;52.020;113.548;2024-03-02T02:41:04;92199.91;;;-7.21
72405;BMP280;60395;52.020;113.548;2024-03-02T02:44:07;92192.66;;;-7.26
72405;BMP280;60395;52.020;113.548;2024-03-02T02:47:11;92197.59;;;-7.30
72405;BMP280;60395;52.020;113.548;2024-03-02T02:50:15;92188.22;;;-7.26
72405;BMP280;60395;52.020;113.548;2024-03-02T02:53:18;92177.63;;;-7.20
72405;BMP280;60395;52.020;113.548;2024-03-02T02:56:22;92190.56;;;-7.02
72405;BMP280;60395;52.020;113.548;2024-03-02T02:59:25;92188.63;;;-6.88
72405;BMP280;60395;52.020;113.548;2024-03-02T03:02:29;92189.06;;;-6.78
72405;BMP280;60395;52.020;113.548;2024-03-02T03:05:33;92182.34;;;-6.72
72405;BMP280;60395;52.020;113.548;2024-03-02T03:08:36;92184.50;;;-6.66
72405;BMP280;60395;52.020;113.548;2024-03-02T03:11:40;92182.91;;;-6.73
72405;BMP280;60395;52.020;113.548;2024-03-02T03:14:43;92180.44;;;-6.71
72405;BMP280;60395;52.020;113.548;2024-03-02T03:17:47;92175.53;;;-6.67
72405;BMP280;60395;52.020;113.548;2024-03-02T03:20:51;92178.03;;;-6.53
72405;BMP280;60395;52.020;113.548;2024-03-02T03:23:55;92180.53;;;-6.40
72405;BMP280;60395;52.020;113.548;2024-03-02T03:26:58;92183.34;;;-6.34
72405;BMP280;60395;52.020;113.548;2024-03-02T03:30:02;92174.44;;;-6.32
72405;BMP280;60395;52.020;113.548;2024-03-02T03:33:06;92168.41;;;-6.39
72405;BMP280;60395;52.020;113.548;2024-03-02T03:36:09;92168.59;;;-6.35
72405;BMP280;60395;52.020;113.548;2024-03-02T03:39:13;92163.97;;;-6.23
72405;BMP280;60395;52.020;113.548;2024-03-02T03:42:16;92160.34;;;-6.18
72405;BMP280;60395;52.020;113.548;2024-03-02T03:45:20;92150.47;;;-6.10
72405;BMP280;60395;52.020;113.548;2024-03-02T03:48:24;92151.81;;;-6.09
72405;BMP280;60395;52.020;113.548;2024-03-02T03:51:33;92150.56;;;-6.08
72405;BMP280;60395;52.020;113.548;2024-03-02T03:54:38;92153.38;;;-6.02
72405;BMP280;60395;52.020;113.548;2024-03-02T03:57:42;92150.31;;;-5.98
72405;BMP280;60395;52.020;113.548;2024-03-02T04:00:46;92154.69;;;-5.85
72405;BMP280;60395;52.020;113.548;2024-03-02T04:03:49;92150.22;;;-5.69
72405;BMP280;60395;52.020;113.548;2024-03-02T04:06:53;92153.91;;;-5.56
72405;BMP280;60395;52.020;113.548;2024-03-02T04:09:57;92150.75;;;-5.54
72405;BMP280;60395;52.020;113.548;2024-03-02T04:13:00;92137.41;;;-5.53
72405;BMP280;60395;52.020;113.548;2024-03-02T04:16:04;92149.16;;;-5.46
72405;BMP280;60395;52.020;113.548;2024-03-02T04:19:10;92147.50;;;-5.39
72405;BMP280;60395;52.020;113.548;2024-03-02T04:22:14;92136.91;;;-5.32
72405;BMP280;60395;52.020;113.548;2024-03-02T04:25:26;92138.22;;;-5.31
72405;BMP280;60395;52.020;113.548;2024-03-02T04:28:29;92140.56;;;-5.37
72405;BMP280;60395;52.020;113.548;2024-03-02T04:31:33;92134.78;;;-5.37
72405;BMP280;60395;52.020;113.548;2024-03-02T04:34:36;92129.94;;;-5.29
72405;BMP280;60395;52.020;113.548;2024-03-02T04:37:39;92131.47;;;-5.24
72405;BMP280;60395;52.020;113.548;2024-03-02T04:40:43;92124.34;;;-5.26
72405;BMP280;60395;52.020;113.548;2024-03-02T04:43:46;92118.47;;;-5.28
72405;BMP280;60395;52.020;113.548;2024-03-02T04:46:50;92118.13;;;-5.21
72405;BMP280;60395;52.020;113.548;2024-03-02T04:49:53;92121.56;;;-5.14
72405;BMP280;60395;52.020;113.548;2024-03-02T04:52:57;92117.63;;;-4.99
72405;BMP280;60395;52.020;113.548;2024-03-02T04:56:00;92113.28;;;-4.95
72405;BMP280;60395;52.020;113.548;2024-03-02T04:59:27;92111.72;;;-5.04
72405;BMP280;60395;52.020;113.548;2024-03-02T05:02:30;92110.81;;;-4.93
72405;BMP280;60395;52.020;113.548;2024-03-02T05:05:34;92108.25;;;-4.75
72405;BMP280;60395;52.020;113.548;2024-03-02T05:08:38;92096.09;;;-4.74
72405;BMP280;60395;52.020;113.548;2024-03-02T05:11:41;92099.91;;;-4.75
72405;BMP280;60395;52.020;113.548;2024-03-02T05:15:02;92101.56;;;-4.64
72405;BMP280;60395;52.020;113.548;2024-03-02T05:18:06;92104.03;;;-4.49
72405;BMP280;60395;52.020;113.548;2024-03-02T05:21:10;92102.56;;;-4.36
72405;BMP280;60395;52.020;113.548;2024-03-02T05:24:14;92099.00;;;-4.27
72405;BMP280;60395;52.020;113.548;2024-03-02T05:27:18;92096.66;;;-4.19
72405;BMP280;60395;52.020;113.548;2024-03-02T05:30:22;92083.56;;;-4.09
72405;BMP280;60395;52.020;113.548;2024-03-02T05:33:25;92084.84;;;-3.88
72405;BMP280;60395;52.020;113.548;2024-03-02T05:36:29;92097.41;;;-3.75
72405;BMP280;60395;52.020;113.548;2024-03-02T05:39:32;92089.88;;;-3.71
72405;BMP280;60395;52.020;113.548;2024-03-02T05:42:36;92088.81;;;-4.05
72405;BMP280;60395;52.020;113.548;2024-03-02T05:45:40;92076.22;;;-4.17
72405;BMP280;60395;52.020;113.548;2024-03-02T05:48:44;92079.31;;;-4.00
72405;BMP280;60395;52.020;113.548;2024-03-02T05:51:50;92078.31;;;-3.91
72405;BMP280;60395;52.020;113.548;2024-03-02T05:54:54;92084.44;;;-3.81
72405;BMP280;60395;52.020;113.548;2024-03-02T05:57:58;92066.84;;;-3.69
72405;BMP280;60395;52.020;113.548;2024-03-02T06:01:01;92073.41;;;-3.63
72405;BMP280;60395;52.020;113.548;2024-03-02T06:04:06;92064.47;;;-3.62
72405;BMP280;60395;52.020;113.548;2024-03-02T06:07:09;92055.13;;;-3.74
72405;BMP280;60395;52.020;113.548;2024-03-02T06:10:12;92060.22;;;-3.76
72405;BMP280;60395;52.020;113.548;2024-03-02T06:13:16;92057.66;;;-3.76
72405;BMP280;60395;52.020;113.548;2024-03-02T06:16:19;92048.88;;;-3.69
72405;BMP280;60395;52.020;113.548;2024-03-02T06:19:23;92059.50;;;-3.56
72405;BMP280;60395;52.020;113.548;2024-03-02T06:22:26;92059.16;;;-3.69
72405;BMP280;60395;52.020;113.548;2024-03-02T06:25:30;92046.59;;;-3.80
72405;BMP280;60395;52.020;113.548;2024-03-02T06:28:33;92050.38;;;-3.61
72405;BMP280;60395;52.020;113.548;2024-03-02T06:31:37;92054.00;;;-3.47
72405;BMP280;60395;52.020;113.548;2024-03-02T06:34:40;92049.78;;;-3.38
72405;BMP280;60395;52.020;113.548;2024-03-02T06:37:43;92055.56;;;-3.38
72405;BMP280;60395;52.020;113.548;2024-03-02T06:40:47;92061.13;;;-3.45
72405;BMP280;60395;52.020;113.548;2024-03-02T06:43:50;92048.75;;;-3.51
72405;BMP280;60395;52.020;113.548;2024-03-02T06:46:57;92052.34;;;-3.60
72405;BMP280;60395;52.020;113.548;2024-03-02T06:50:01;92042.25;;;-3.76
72405;BMP280;60395;52.020;113.548;2024-03-02T06:53:04;92045.72;;;-3.89
72405;BMP280;60395;52.020;113.548;2024-03-02T06:56:08;92053.34;;;-3.91
72405;BMP280;60395;52.020;113.548;2024-03-02T06:59:12;92051.22;;;-3.96
72405;BMP280;60395;52.020;113.548;2024-03-02T07:02:15;92043.50;;;-4.18
72405;BMP280;60395;52.020;113.548;2024-03-02T07:05:19;92055.41;;;-4.27
72405;BMP280;60395;52.020;113.548;2024-03-02T07:08:24;92052.19;;;-4.27
72405;BMP280;60395;52.020;113.548;2024-03-02T07:11:27;92051.31;;;-4.36
72405;BMP280;60395;52.020;113.548;2024-03-02T07:14:31;92051.75;;;-4.41
72405;BMP280;60395;52.020;113.548;2024-03-02T07:17:52;92054.94;;;-4.41
72405;BMP280;60395;52.020;113.548;2024-03-02T07:20:56;92055.16;;;-4.35
72405;BMP280;60395;52.020;113.548;2024-03-02T07:24:04;92042.00;;;-4.25
72405;BMP280;60395;52.020;113.548;2024-03-02T07:27:10;92045.69;;;-4.11
72405;BMP280;60395;52.020;113.548;2024-03-02T07:30:15;92045.13;;;-4.07
72405;BMP280;60395;52.020;113.548;2024-03-02T07:33:21;92039.06;;;-3.96
72405;BMP280;60395;52.020;113.548;2024-03-02T07:36:28;92040.59;;;-3.89
72405;BMP280;60395;52.020;113.548;2024-03-02T07:39:31;92038.19;;;-3.83
72405;BMP280;60395;52.020;113.548;2024-03-02T07:42:35;92040.66;;;-3.87
72405;BMP280;60395;52.020;113.548;2024-03-02T07:45:39;92045.59;;;-3.93
72405;BMP280;60395;52.020;113.548;2024-03-02T07:48:42;92046.53;;;-4.04
72405;BMP280;60395;52.020;113.548;2024-03-02T07:51:46;92042.06;;;-4.23
72405;BMP280;60395;52.020;113.548;2024-03-02T07:54:50;92030.38;;;-4.28
72405;BMP280;60395;52.020;113.548;2024-03-02T07:57:54;92038.72;;;-4.28
72405;BMP280;60395;52.020;113.548;2024-03-02T08:00:58;92021.69;;;-4.39
72405;BMP280;60395;52.020;113.548;2024-03-02T08:04:04;92038.38;;;-4.38
72405;BMP280;60395;52.020;113.548;2024-03-02T08:07:08;92040.81;;;-4.42
72405;BMP280;60395;52.020;113.548;2024-03-02T08:10:13;92048.38;;;-4.46
72405;BMP280;60395;52.020;113.548;2024-03-02T08:13:16;92046.47;;;-4.46
72405;BMP280;60395;52.020;113.548;2024-03-02T08:16:20;92046.94;;;-4.51
72405;BMP280;60395;52.020;113.548;2024-03-02T08:19:24;92046.41;;;-4.48
72405;BMP280;60395;52.020;113.548;2024-03-02T08:22:28;92052.44;;;-4.39
72405;BMP280;60395;52.020;113.548;2024-03-02T08:25:31;92051.41;;;-4.32
72405;BMP280;60395;52.020;113.548;2024-03-02T08:28:35;92054.69;;;-4.10
72405;BMP280;60395;52.020;113.548;2024-03-02T08:31:43;92050.63;;;-3.95
72405;BMP280;60395;52.020;113.548;2024-03-02T08:34:46;92042.41;;;-3.91
72405;BMP280;60395;52.020;113.548;2024-03-02T08:37:50;92052.19;;;-3.86
72405;BMP280;60395;52.020;113.548;2024-03-02T08:40:53;92038.03;;;-3.89
72405;BMP280;60395;52.020;113.548;2024-03-02T08:43:57;92045.66;;;-3.91
72405;BMP280;60395;52.020;113.548;2024-03-02T08:47:04;92042.50;;;-3.89
72405;BMP280;60395;52.020;113.548;2024-03-02T08:50:07;92038.28;;;-4.00
72405;BMP280;60395;52.020;113.548;2024-03-02T08:53:12;92059.81;;;-4.10
72405;BMP280;60395;52.020;113.548;2024-03-02T08:56:15;92051.66;;;-4.24
72405;BMP280;60395;52.020;113.548;2024-03-02T08:59:22;92059.44;;;-4.41
72405;BMP280;60395;52.020;113.548;2024-03-02T09:02:29;92055.28;;;-4.51
72405;BMP280;60395;52.020;113.548;2024-03-02T09:05:32;92060.41;;;-4.51
72405;BMP280;60395;52.020;113.548;2024-03-02T09:08:36;92060.00;;;-4.43
72405;BMP280;60395;52.020;113.548;2024-03-02T09:11:39;92069.59;;;-4.44
72405;BMP280;60395;52.020;113.548;2024-03-02T09:14:43;92061.13;;;-4.48
72405;BMP280;60395;52.020;113.548;2024-03-02T09:17:47;92064.28;;;-4.50
72405;BMP280;60395;52.020;113.548;2024-03-02T09:20:51;92062.69;;;-4.39
72405;BMP280;60395;52.020;113.548;2024-03-02T09:23:56;92067.03;;;-4.44
72405;BMP280;60395;52.020;113.548;2024-03-02T09:26:59;92064.06;;;-4.56
72405;BMP280;60395;52.020;113.548;2024-03-02T09:30:07;92062.53;;;-4.63
72405;BMP280;60395;52.020;113.548;2024-03-02T09:33:14;92066.75;;;-4.71
72405;BMP280;60395;52.020;113.548;2024-03-02T09:36:20;92068.84;;;-4.86
72405;BMP280;60395;52.020;113.548;2024-03-02T09:39:23;92067.75;;;-4.98
72405;BMP280;60395;52.020;113.548;2024-03-02T09:42:32;92065.31;;;-5.12
72405;BMP280;60395;52.020;113.548;2024-03-02T09:45:36;92075.94;;;-5.19
72405;BMP280;60395;52.020;113.548;2024-03-02T09:48:40;92075.56;;;-5.30
72405;BMP280;60395;52.020;113.548;2024-03-02T09:51:47;92077.09;;;-5.40
72405;BMP280;60395;52.020;113.548;2024-03-02T09:54:52;92077.31;;;-5.52
72405;BMP280;60395;52.020;113.548;2024-03-02T09:57:55;92082.84;;;-5.57
72405;BMP280;60395;52.020;113.548;2024-03-02T10:00:59;92080.66;;;-5.65
72405;BMP280;60395;52.020;113.548;2024-03-02T10:04:04;92086.78;;;-5.72
72405;BMP280;60395;52.020;113.548;2024-03-02T10:07:17;92089.84;;;-5.76
72405;BMP280;60395;52.020;113.548;2024-03-02T10:10:21;92083.09;;;-5.85
72405;BMP280;60395;52.020;113.548;2024-03-02T10:16:48;92090.53;;;-6.07
72405;BMP280;60395;52.020;113.548;2024-03-02T10:19:51;92085.59;;;-6.18
72405;BMP280;60395;52.020;113.548;2024-03-02T10:23:14;92088.31;;;-6.30
72405;BMP280;60395;52.020;113.548;2024-03-02T10:26:18;92094.19;;;-6.43
72405;BMP280;60395;52.020;113.548;2024-03-02T10:29:22;92100.09;;;-6.54
72405;BMP280;60395;52.020;113.548;2024-03-02T10:32:26;92092.41;;;-6.70
72405;BMP280;60395;52.020;113.548;2024-03-02T10:35:30;92094.69;;;-6.92
72405;BMP280;60395;52.020;113.548;2024-03-02T10:38:35;92098.00;;;-7.19
72405;BMP280;60395;52.020;113.548;2024-03-02T10:41:39;92102.84;;;-7.38
72405;BMP280;60395;52.020;113.548;2024-03-02T10:44:43;92093.91;;;-7.53
72405;BMP280;60395;52.020;113.548;2024-03-02T10:47:47;92099.47;;;-7.70
72405;BMP280;60395;52.020;113.548;2024-03-02T10:50:51;92104.09;;;-7.80
72405;BMP280;60395;52.020;113.548;2024-03-02T10:53:56;92113.34;;;-8.01
72405;BMP280;60395;52.020;113.548;2024-03-02T10:57:00;92102.97;;;-8.18
72405;BMP280;60395;52.020;113.548;2024-03-02T11:00:06;92116.97;;;-8.31
72405;BMP280;60395;52.020;113.548;2024-03-02T11:03:15;92110.53;;;-8.46
72405;BMP280;60395;52.020;113.548;2024-03-02T11:06:22;92115.78;;;-8.56
72405;BMP280;60395;52.020;113.548;2024-03-02T11:09:28;92118.13;;;-8.60
72405;BMP280;60395;52.020;113.548;2024-03-02T11:12:51;92118.13;;;-8.60
72405;BMP280;60395;52.020;113.548;2024-03-02T11:16:09;92129.53;;;-8.61
72405;BMP280;60395;52.020;113.548;2024-03-02T11:19:16;92131.53;;;-8.59
72405;BMP280;60395;52.020;113.548;2024-03-02T11:22:20;92134.72;;;-8.59
72405;BMP280;60395;52.020;113.548;2024-03-02T11:25:28;92130.66;;;-8.64
72405;BMP280;60395;52.020;113.548;2024-03-02T11:28:35;92131.13;;;-8.67
72405;BMP280;60395;52.020;113.548;2024-03-02T11:31:58;92135.22;;;-8.74
72405;BMP280;60395;52.020;113.548;2024-03-02T11:35:04;92139.09;;;-8.73
72405;BMP280;60395;52.020;113.548;2024-03-02T11:38:14;92141.91;;;-8.80
72405;BMP280;60395;52.020;113.548;2024-03-02T11:41:19;92144.78;;;-8.86
72405;BMP280;60395;52.020;113.548;2024-03-02T11:44:24;92147.56;;;-8.94
72405;BMP280;60395;52.020;113.548;2024-03-02T11:47:31;92145.03;;;-8.94
72405;BMP280;60395;52.020;113.548;2024-03-02T11:50:42;92141.53;;;-9.00
72405;BMP280;60395;52.020;113.548;2024-03-02T11:53:50;92141.75;;;-9.08
72405;BMP280;60395;52.020;113.548;2024-03-02T11:56:54;92140.34;;;-9.11
72405;BMP280;60395;52.020;113.548;2024-03-02T11:59:58;92148.97;;;-9.16
72405;BMP280;60395;52.020;113.548;2024-03-02T12:03:09;92152.28;;;-9.13
72405;BMP280;60395;52.020;113.548;2024-03-02T12:06:13;92138.69;;;-9.18
72405;BMP280;60395;52.020;113.548;2024-03-02T12:09:16;92145.13;;;-9.17
72405;BMP280;60395;52.020;113.548;2024-03-02T12:12:21;92147.41;;;-9.09
72405;BMP280;60395;52.020;113.548;2024-03-02T12:15:30;92136.03;;;-9.08
72405;BMP280;60395;52.020;113.548;2024-03-02T12:18:34;92144.75;;;-9.11
72405;BMP280;60395;52.020;113.548;2024-03-02T12:21:38;92150.16;;;-9.05
72405;BMP280;60395;52.020;113.548;2024-03-02T12:24:41;92139.75;;;-8.98
72405;BMP280;60395;52.020;113.548;2024-03-02T12:27:53;92145.44;;;-8.85
72405;BMP280;60395;52.020;113.548;2024-03-02T12:30:57;92141.13;;;-8.83
72405;BMP280;60395;52.020;113.548;2024-03-02T12:34:02;92145.31;;;-8.76
72405;BMP280;60395;52.020;113.548;2024-03-02T12:37:07;92146.13;;;-8.85
72405;BMP280;60395;52.020;113.548;2024-03-02T12:40:12;92147.34;;;-8.86
72405;BMP280;60395;52.020;113.548;2024-03-02T12:43:16;92144.69;;;-8.88
72405;BMP280;60395;52.020;113.548;2024-03-02T12:46:20;92146.00;;;-8.87
72405;BMP280;60395;52.020;113.548;2024-03-02T12:49:23;92139.34;;;-8.80
72405;BMP280;60395;52.020;113.548;2024-03-02T12:52:28;92146.56;;;-8.63
72405;BMP280;60395;52.020;113.548;2024-03-02T12:55:31;92148.41;;;-8.52
72405;BMP280;60395;52.020;113.548;2024-03-02T12:58:41;92144.38;;;-8.43
72405;BMP280;60395;52.020;113.548;2024-03-02T13:01:54;92148.91;;;-8.42
72405;BMP280;60395;52.020;113.548;2024-03-02T13:05:00;92147.50;;;-8.45
72405;BMP280;60395;52.020;113.548;2024-03-02T13:08:07;92143.31;;;-8.52
72405;BMP280;60395;52.020;113.548;2024-03-02T13:11:11;92139.66;;;-8.74
72405;BMP280;60395;52.020;113.548;2024-03-02T13:14:14;92141.88;;;-9.06
72405;BMP280;60395;52.020;113.548;2024-03-02T13:17:19;92145.34;;;-9.24
72405;BMP280;60395;52.020;113.548;2024-03-02T13:20:22;92147.91;;;-9.36
72405;BMP280;60395;52.020;113.548;2024-03-02T13:23:28;92147.66;;;-9.40
72405;BMP280;60395;52.020;113.548;2024-03-02T13:26:33;92140.50;;;-9.44
72405;BMP280;60395;52.020;113.548;2024-03-02T13:29:37;92150.69;;;-9.44
72405;BMP280;60395;52.020;113.548;2024-03-02T13:32:40;92143.16;;;-9.53
72405;BMP280;60395;52.020;113.548;2024-03-02T13:35:44;92152.44;;;-9.58
72405;BMP280;60395;52.020;113.548;2024-03-02T13:38:47;92145.69;;;-9.65
72405;BMP280;60395;52.020;113.548;2024-03-02T13:41:51;92153.00;;;-9.71
72405;BMP280;60395;52.020;113.548;2024-03-02T13:45:05;92146.03;;;-9.82
72405;BMP280;60395;52.020;113.548;2024-03-02T13:48:09;92148.91;;;-9.88
72405;BMP280;60395;52.020;113.548;2024-03-02T13:51:12;92151.50;;;-10.09
72405;BMP280;60395;52.020;113.548;2024-03-02T13:54:16;92162.31;;;-10.20
72405;BMP280;60395;52.020;113.548;2024-03-02T13:57:19;92154.34;;;-10.26
72405;BMP280;60395;52.020;113.548;2024-03-02T14:00:27;92157.75;;;-10.34
72405;BMP280;60395;52.020;113.548;2024-03-02T14:03:32;92156.09;;;-10.41
72405;BMP280;60395;52.020;113.548;2024-03-02T14:06:35;92164.81;;;-10.44
72405;BMP280;60395;52.020;113.548;2024-03-02T14:09:39;92158.03;;;-10.51
72405;BMP280;60395;52.020;113.548;2024-03-02T14:12:45;92157.72;;;-10.57
72405;BMP280;60395;52.020;113.548;2024-03-02T14:15:49;92160.34;;;-10.66
72405;BMP280;60395;52.020;113.548;2024-03-02T14:18:53;92154.41;;;-10.81
72405;BMP280;60395;52.020;113.548;2024-03-02T14:21:56;92160.56;;;-10.84
72405;BMP280;60395;52.020;113.548;2024-03-02T14:25:00;92168.59;;;-10.87
72405;BMP280;60395;52.020;113.548;2024-03-02T14:28:04;92174.91;;;-10.88
72405;BMP280;60395;52.020;113.548;2024-03-02T14:31:28;92171.25;;;-10.85
72405;BMP280;60395;52.020;113.548;2024-03-02T14:34:31;92168.50;;;-10.89
72405;BMP280;60395;52.020;113.548;2024-03-02T14:37:38;92168.78;;;-10.95
72405;BMP280;60395;52.020;113.548;2024-03-02T14:40:41;92177.31;;;-10.90
72405;BMP280;60395;52.020;113.548;2024-03-02T14:43:45;92175.28;;;-10.92
72405;BMP280;60395;52.020;113.548;2024-03-02T14:46:49;92176.53;;;-10.93
72405;BMP280;60395;52.020;113.548;2024-03-02T14:49:53;92178.63;;;-10.89
72405;BMP280;60395;52.020;113.548;2024-03-02T14:52:56;92175.00;;;-10.86
72405;BMP280;60395;52.020;113.548;2024-03-02T14:56:00;92165.97;;;-10.89
72405;BMP280;60395;52.020;113.548;2024-03-02T14:59:04;92168.84;;;-11.05
72405;BMP280;60395;52.020;113.548;2024-03-02T15:02:08;92166.88;;;-11.06
72405;BMP280;60395;52.020;113.548;2024-03-02T15:05:11;92171.19;;;-10.97
72405;BMP280;60395;52.020;113.548;2024-03-02T15:08:15;92172.41;;;-10.98
72405;BMP280;60395;52.020;113.548;2024-03-02T15:11:18;92174.41;;;-10.96
72405;BMP280;60395;52.020;113.548;2024-03-02T15:14:22;92174.16;;;-11.00
72405;BMP280;60395;52.020;113.548;2024-03-02T15:17:26;92172.34;;;-11.10
72405;BMP280;60395;52.020;113.548;2024-03-02T15:20:29;92176.38;;;-11.16
72405;BMP280;60395;52.020;113.548;2024-03-02T15:23:33;92172.28;;;-11.21
72405;BMP280;60395;52.020;113.548;2024-03-02T15:26:37;92166.84;;;-11.37
72405;BMP280;60395;52.020;113.548;2024-03-02T15:29:40;92156.41;;;-11.53
72405;BMP280;60395;52.020;113.548;2024-03-02T15:32:43;92163.94;;;-11.64
72405;BMP280;60395;52.020;113.548;2024-03-02T15:35:47;92168.44;;;-11.63
72405;BMP280;60395;52.020;113.548;2024-03-02T15:38:50;92168.16;;;-11.57
72405;BMP280;60395;52.020;113.548;2024-03-02T15:41:54;92161.38;;;-11.55
72405;BMP280;60395;52.020;113.548;2024-03-02T15:44:57;92158.41;;;-11.51
72405;BMP280;60395;52.020;113.548;2024-03-02T15:48:01;92165.75;;;-11.55
72405;BMP280;60395;52.020;113.548;2024-03-02T15:51:05;92172.44;;;-11.60
72405;BMP280;60395;52.020;113.548;2024-03-02T15:54:08;92169.13;;;-11.62
72405;BMP280;60395;52.020;113.548;2024-03-02T15:57:12;92166.72;;;-11.60
72405;BMP280;60395;52.020;113.548;2024-03-02T16:00:16;92176.59;;;-11.64
72405;BMP280;60395;52.020;113.548;2024-03-02T16:03:19;92178.34;;;-11.67
72405;BMP280;60395;52.020;113.548;2024-03-02T16:06:23;92182.97;;;-11.63
72405;BMP280;60395;52.020;113.548;2024-03-02T16:09:26;92186.19;;;-11.63
72405;BMP280;60395;52.020;113.548;2024-03-02T16:12:30;92180.56;;;-11.61
72405;BMP280;60395;52.020;113.548;2024-03-02T16:15:33;92183.13;;;-11.61
72405;BMP280;60395;52.020;113.548;2024-03-02T16:18:37;92185.78;;;-11.59
72405;BMP280;60395;52.020;113.548;2024-03-02T16:21:40;92181.63;;;-11.55
72405;BMP280;60395;52.020;113.548;2024-03-02T16:24:44;92186.41;;;-11.49
72405;BMP280;60395;52.020;113.548;2024-03-02T16:27:47;92190.88;;;-11.38
72405;BMP280;60395;52.020;113.548;2024-03-02T16:30:51;92191.91;;;-11.31
72405;BMP280;60395;52.020;113.548;2024-03-02T16:33:56;92197.78;;;-11.29
72405;BMP280;60395;52.020;113.548;2024-03-02T16:37:00;92195.78;;;-11.30
72405;BMP280;60395;52.020;113.548;2024-03-02T16:40:03;92191.28;;;-11.32
72405;BMP280;60395;52.020;113.548;2024-03-02T16:43:08;92212.34;;;-11.39
72405;BMP280;60395;52.020;113.548;2024-03-02T16:46:11;92208.00;;;-11.48
72405;BMP280;60395;52.020;113.548;2024-03-02T16:49:15;92210.69;;;-11.56
72405;BMP280;60395;52.020;113.548;2024-03-02T16:52:18;92213.09;;;-11.58
72405;BMP280;60395;52.020;113.548;2024-03-02T16:55:23;92211.75;;;-11.59
72405;BMP280;60395;52.020;113.548;2024-03-02T16:58:26;92212.69;;;-11.64
72405;BMP280;60395;52.020;113.548;2024-03-02T17:01:29;92212.84;;;-11.62
72405;BMP280;60395;52.020;113.548;2024-03-02T17:04:33;92212.84;;;-11.62
72405;BMP280;60395;52.020;113.548;2024-03-02T17:07:36;92210.31;;;-11.62
72405;BMP280;60395;52.020;113.548;2024-03-02T17:10:40;92206.16;;;-11.57
72405;BMP280;60395;52.020;113.548;2024-03-02T17:13:43;92207.63;;;-11.54